Aberdeen, WA

12:45 PM PDT on September 02, 2014 (GMT -0700)
Central Park 2 | Change Station
CLOSE
Current Station
Personal Weather Station
Location: Aberdeen, WA
Elevation: 33 ft
Nearby Weather Stations

Elev 33 ft 46.97 °N, 123.72 °W | Updated 12 minutes ago

Overcast
Overcast
66.0 °F
Feels Like 66.0 °F
N
4.2
Wind Variable Wind from WNW

Today
High -- | Low -- °F
--% Chance of Precip.
Yesterday
High -- | Low -- °F
Precip. -- in
6:35 AM 7:52 PM
First Quarter, 54% visible
Pressure 29.96 in
Visibility 7.0 miles
Clouds Overcast 4500 ft
Dew Point 55 °F
Humidity 68%
Rainfall 0.00 in
Snow Depth Not available.
UV 2 out of 12
Pollen 2.80 out of 12
PM2.5 Good
Flu Activity Not available.
METAR KHQM 021853Z AUTO 22010KT 7SM OVC045 17/13 A2994 RMK AO2 SLP143 T01720133

More Conditions Fewer Conditions

Pressure 29.96 in
Visibility 7.0 miles
Clouds Overcast 4500 ft
Dew Point 55 °F
Humidity 68%
Rainfall 0.00 in
Snow Depth Not available.
UV 2 out of 12
Pollen 2.80 out of 12
PM2.5 Good
Flu Activity Not available.
METAR KHQM 021853Z AUTO 22010KT 7SM OVC045 17/13 A2994 RMK AO2 SLP143 T01720133

More Conditions Fewer Conditions

10-Day Weather Forecast

Almanac

Astronomy

Sep. 02, 2014 Rise Set
Actual Time 6:35 AM PDT 7:52 PM PDT
Civil Twilight 6:04 AM PDT 8:23 PM PDT
Nautical Twilight 5:26 AM PDT 9:01 PM PDT
Astronomical Twilight 4:45 AM PDT 9:42 PM PDT
Moon 2:53 PM PDT No Moon Set
Length of Visible Light 14h 19m
Length of Day
13h 16m
Tomorrow will be 3m 16s shorter.
First Quarter, 54% of the Moon is Illuminated
Today
First Quarter
Sep 8
Full
Sep 15
Last Quarter
Sep 24
New
Oct 1
First Quarter

Today's Extremes

State Highs State Lows

Community

WunderPhotos

Upload Photos

1,749,751 photos uploaded!

WunderBlogs® & News

By Dr. Jeff Masters
Director of Meteorology, Weather Underground
By Kari Strenfel
Meteorologist, Weather Underground
By Christopher C. Burt
Weather Historian, Weather Underground
September 2, 2014
September 2, 2014
September 2, 2014

Nearby

Air Quality

  Air Quality AQ Index Pollutant
Yesterday Good
PM2.5
Current Good
PM2.5

Snow Depth

Station Depth Elevation
Mount Crag 0 in 4050 ft
Dungeness 0 in 4100 ft
Burnt Mountain 0 in 4200 ft
Swift Creek 0 in 3770 ft
June Lake 0 in 3340 ft

Earthquake Activity

City Distance Mag. Time & Date
No recent earthquake activity has been reported nearby.
Minimum magnitude displayed is 2.5.

Coastal Water Temperatures

Place Temperature
Westport, WA 61.0 °F
Tacoma, WA 55.0 °F
Seattle, WA 55.9 °F
Astoria, OR 70.0 °F

Nearby Weather Stations